createdAt,value
2022-08-01T00:02:51.340Z,1.33
2022-08-01T00:07:53.625Z,1.35
2022-08-01T00:12:55.882Z,1.40
2022-08-01T00:17:58.255Z,0.90
2022-08-01T00:23:00.522Z,1.25
2022-08-01T00:28:09.573Z,1.67
2022-08-01T00:33:11.838Z,1.33
2022-08-01T00:38:14.122Z,1.50
2022-08-01T00:43:16.542Z,2.00
2022-08-01T00:48:18.852Z,1.90
2022-08-01T00:53:21.159Z,1.73
2022-08-01T00:58:24.326Z,2.08
2022-08-01T01:03:57.118Z,1.83
2022-08-01T01:09:08.517Z,1.42
2022-08-01T01:14:22.727Z,1.33
2022-08-01T01:19:31.421Z,2.05
2022-08-01T01:24:59.833Z,1.50
2022-08-01T01:30:03.073Z,1.20
2022-08-01T01:35:14.973Z,1.20
2022-08-01T01:40:18.864Z,1.60
2022-08-01T01:45:22.109Z,1.30
2022-08-01T01:50:26.236Z,1.42
2022-08-01T01:55:29.749Z,1.40
2022-08-01T02:00:33.370Z,0.85
2022-08-01T02:05:37.895Z,1.15
2022-08-01T02:10:41.725Z,1.58
2022-08-01T02:15:59.676Z,1.42
2022-08-01T02:21:06.549Z,0.87
2022-08-01T02:26:14.663Z,1.17
2022-08-01T02:31:20.922Z,1.02
2022-08-01T02:36:28.851Z,1.17
2022-08-01T02:41:40.822Z,0.70
2022-08-01T02:46:52.533Z,0.93
2022-08-01T02:51:58.117Z,0.88
2022-08-01T02:57:02.433Z,0.60
2022-08-01T03:02:08.543Z,0.75
2022-08-01T03:07:13.615Z,0.38
2022-08-01T03:12:20.845Z,1.15
2022-08-01T03:17:29.823Z,0.70
2022-08-01T03:22:35.033Z,1.17
2022-08-01T03:27:41.028Z,1.08
2022-08-01T03:32:44.807Z,0.60
2022-08-01T03:38:15.267Z,0.98
2022-08-01T03:43:31.682Z,0.45
2022-08-01T03:48:37.647Z,0.80
2022-08-01T03:53:43.443Z,0.63
2022-08-01T03:58:50.902Z,0.80
2022-08-01T04:09:51.925Z,1.05
2022-08-01T04:20:53.054Z,0.90
2022-08-01T04:26:05.675Z,0.90
2022-08-01T04:31:23.740Z,1.40
2022-08-01T04:36:38.038Z,0.90
2022-08-01T04:41:51.109Z,1.45
2022-08-01T04:46:55.670Z,1.67
2022-08-01T04:52:04.661Z,1.13
2022-08-01T04:57:07.141Z,1.17
2022-08-01T05:02:17.252Z,1.08
2022-08-01T05:07:20.689Z,0.90
2022-08-01T05:12:25.610Z,0.80
2022-08-01T05:17:29.045Z,1.10
2022-08-01T05:22:34.439Z,0.85
2022-08-01T05:27:40.557Z,1.23
2022-08-01T05:33:07.232Z,0.77
2022-08-01T05:38:11.608Z,0.82
2022-08-01T05:43:18.719Z,1.20
2022-08-01T05:48:21.590Z,0.90
2022-08-01T05:53:52.772Z,0.98
2022-08-01T05:58:55.118Z,0.88
2022-08-01T06:04:08.013Z,0.88
2022-08-01T06:09:10.487Z,1.23
2022-08-01T06:14:13.330Z,0.77
2022-08-01T06:19:27.526Z,1.10
2022-08-01T06:24:30.885Z,1.17
2022-08-01T06:29:33.591Z,1.00
2022-08-01T06:34:36.037Z,1.13
2022-08-01T06:39:39.431Z,1.67
2022-08-01T06:44:42.203Z,1.33
2022-08-01T06:49:44.411Z,1.30
2022-08-01T06:54:46.761Z,1.10
2022-08-01T06:59:54.520Z,1.20
2022-08-01T07:05:01.189Z,1.52
2022-08-01T07:10:04.371Z,1.00
2022-08-01T07:15:09.844Z,1.33
2022-08-01T07:20:13.760Z,1.20
2022-08-01T07:25:18.579Z,1.20
2022-08-01T07:30:20.909Z,1.50
2022-08-01T07:35:23.280Z,1.20
2022-08-01T07:40:25.546Z,1.60
2022-08-01T07:45:28.118Z,0.93
2022-08-01T07:50:31.109Z,1.10
2022-08-01T07:55:36.552Z,0.98
2022-08-01T08:00:38.937Z,1.42
2022-08-01T08:05:57.731Z,1.67
2022-08-01T08:11:02.754Z,1.67
2022-08-01T08:16:05.152Z,1.60
2022-08-01T08:21:07.566Z,1.38
2022-08-01T08:26:09.957Z,1.90
2022-08-01T08:31:25.468Z,1.95
2022-08-01T08:36:34.824Z,1.83
2022-08-01T08:41:38.380Z,1.42
2022-08-01T08:46:49.228Z,1.33
2022-08-01T08:51:53.558Z,2.08
2022-08-01T08:56:57.104Z,1.20
2022-08-01T09:02:00.118Z,1.27
2022-08-01T09:07:04.938Z,0.90
2022-08-01T09:12:09.778Z,0.80
2022-08-01T09:17:13.701Z,1.02
2022-08-01T09:22:23.954Z,1.20
2022-08-01T09:27:26.604Z,0.90
2022-08-01T09:33:00.541Z,1.10
2022-08-01T09:38:27.819Z,0.98
2022-08-01T09:43:39.753Z,1.20
2022-08-01T09:49:49.798Z,1.27
2022-08-01T09:54:59.991Z,1.23
2022-08-01T10:00:05.704Z,1.08
2022-08-01T10:05:32.494Z,0.88
2022-08-01T10:10:41.404Z,1.20
2022-08-01T10:15:48.927Z,1.00
2022-08-01T10:20:51.293Z,1.10
2022-08-01T10:25:56.273Z,1.15
2022-08-01T10:31:00.936Z,0.77
2022-08-01T10:36:08.619Z,0.90
2022-08-01T10:41:12.406Z,0.82
2022-08-01T10:46:16.118Z,0.80
2022-08-01T10:51:22.455Z,0.88
2022-08-01T10:56:48.895Z,0.98
2022-08-01T11:02:05.203Z,0.68
2022-08-01T11:07:14.670Z,0.75
2022-08-01T11:12:23.588Z,0.70
2022-08-01T11:17:37.895Z,0.80
2022-08-01T11:30:13.168Z,0.90
2022-08-01T11:35:18.005Z,0.70
2022-08-01T11:40:26.467Z,0.63
2022-08-01T11:46:00.846Z,0.57
2022-08-01T11:51:03.359Z,0.90
2022-08-01T11:56:05.838Z,0.93
2022-08-01T12:02:01.276Z,0.60
2022-08-01T12:07:15.576Z,0.43
2022-08-01T12:12:18.873Z,0.50
2022-08-01T12:18:21.366Z,0.70
2022-08-01T12:29:03.697Z,0.60
2022-08-01T12:34:27.557Z,0.40
2022-08-01T12:39:54.075Z,0.70
2022-08-01T12:44:56.876Z,1.00
2022-08-01T12:49:59.856Z,0.60
2022-08-01T12:55:15.258Z,0.50
2022-08-01T13:00:32.316Z,0.77
2022-08-01T13:06:02.698Z,0.55
2022-08-01T13:11:15.572Z,0.50
2022-08-01T13:16:30.179Z,0.47
2022-08-01T13:21:55.022Z,0.50
2022-08-01T13:27:01.196Z,1.35
2022-08-01T13:32:28.877Z,0.85
2022-08-01T13:37:32.966Z,0.40
2022-08-01T13:42:35.919Z,0.50
2022-08-01T13:47:38.683Z,1.05
2022-08-01T13:53:01.091Z,1.05
2022-08-01T13:58:08.422Z,0.88
2022-08-01T14:03:11.085Z,0.55
2022-08-01T14:08:15.145Z,0.70
2022-08-01T14:13:23.675Z,0.57
2022-08-01T14:18:28.203Z,0.50
2022-08-01T14:23:32.707Z,1.08
2022-08-01T14:28:38.193Z,0.50
2022-08-01T14:33:45.339Z,0.80
2022-08-01T14:39:01.215Z,0.88
2022-08-01T14:44:28.633Z,0.50
2022-08-01T14:49:45.355Z,0.45
2022-08-01T14:54:48.104Z,0.70
2022-08-01T15:00:02.959Z,0.52
2022-08-01T15:05:06.823Z,0.68
2022-08-01T15:10:10.587Z,0.50
2022-08-01T15:15:13.316Z,0.40
2022-08-01T15:20:15.613Z,0.40
2022-08-01T15:25:40.721Z,0.50
2022-08-01T15:30:44.978Z,0.60
2022-08-01T15:36:06.710Z,0.40
2022-08-01T15:41:33.148Z,0.40
2022-08-01T15:46:36.873Z,0.20
2022-08-01T15:51:42.431Z,0.40
2022-08-01T15:56:46.177Z,0.32
2022-08-01T16:02:04.535Z,0.38
2022-08-01T16:12:57.799Z,0.30
2022-08-01T16:23:13.849Z,0.40
2022-08-01T16:28:20.356Z,0.45
2022-08-01T16:33:41.559Z,0.35
2022-08-01T16:38:58.682Z,0.50
2022-08-01T16:44:10.641Z,0.40
2022-08-01T16:49:17.631Z,0.60
2022-08-01T17:13:40.042Z,0.60
2022-08-01T17:18:48.850Z,0.77
2022-08-01T17:24:00.253Z,0.43
2022-08-01T17:29:03.758Z,0.60
2022-08-01T17:34:13.526Z,0.60
2022-08-01T17:39:21.849Z,0.35
2022-08-01T17:44:37.086Z,0.60
2022-08-01T17:49:54.218Z,0.55
2022-08-01T18:00:27.740Z,0.22
2022-08-01T18:05:36.789Z,0.55
2022-08-01T18:10:48.009Z,0.40
2022-08-01T18:15:51.056Z,0.70
2022-08-01T18:20:53.488Z,0.70
2022-08-01T18:26:03.237Z,0.60
2022-08-01T18:31:06.507Z,0.63
2022-08-01T18:36:14.155Z,0.57
2022-08-01T18:41:37.379Z,0.70
2022-08-01T18:46:47.546Z,0.52
2022-08-01T18:51:50.150Z,0.90
2022-08-01T18:56:53.030Z,0.60
2022-08-01T19:01:55.457Z,0.40
2022-08-01T19:06:57.823Z,0.30
2022-08-01T19:12:00.138Z,0.40
2022-08-01T19:17:02.496Z,0.65
2022-08-01T19:22:04.914Z,0.40
2022-08-01T19:27:09.920Z,0.30
2022-08-01T19:32:12.407Z,0.30
2022-08-01T19:37:16.022Z,0.40
2022-08-01T19:42:18.385Z,0.38
2022-08-01T19:47:20.799Z,0.22
2022-08-01T19:52:26.196Z,0.30
2022-08-01T19:57:45.280Z,0.30
2022-08-01T20:02:50.486Z,0.40
2022-08-01T20:07:52.823Z,0.50
2022-08-01T20:12:57.790Z,0.77
2022-08-01T20:18:00.819Z,0.45
2022-08-01T20:23:03.782Z,0.40
2022-08-01T20:28:08.624Z,0.30
2022-08-01T20:33:11.925Z,0.50
2022-08-01T20:38:15.955Z,0.60
2022-08-01T20:43:22.536Z,0.38
2022-08-01T20:48:27.139Z,0.50
2022-08-01T20:53:31.554Z,0.43
2022-08-01T20:59:09.279Z,0.68
2022-08-01T21:04:23.819Z,0.90
2022-08-01T21:09:36.900Z,0.68
2022-08-01T21:14:53.676Z,0.55
2022-08-01T21:20:00.206Z,0.40
2022-08-01T21:25:07.800Z,0.68
2022-08-01T21:30:10.675Z,0.30
2022-08-01T21:35:16.341Z,0.40
2022-08-01T21:40:23.270Z,0.47
2022-08-01T21:45:27.285Z,0.38
2022-08-01T21:50:32.223Z,0.40
2022-08-01T21:55:59.140Z,0.25
2022-08-01T22:01:13.681Z,0.50
2022-08-01T22:06:19.037Z,0.20
2022-08-01T22:11:25.030Z,0.20
2022-08-01T22:16:30.497Z,0.38
2022-08-01T22:21:32.927Z,0.30
2022-08-01T22:26:37.411Z,0.40
2022-08-01T22:31:40.137Z,0.30
2022-08-01T22:36:42.340Z,0.77
2022-08-01T22:42:01.955Z,0.32
2022-08-01T22:47:09.996Z,0.77
2022-08-01T22:52:20.837Z,0.82
2022-08-01T22:57:51.082Z,0.85
2022-08-01T23:02:58.274Z,1.35
2022-08-01T23:08:03.974Z,1.35
2022-08-01T23:13:07.181Z,1.77
2022-08-01T23:18:10.027Z,1.30
2022-08-01T23:23:13.688Z,1.83
2022-08-01T23:28:17.016Z,2.08
2022-08-01T23:33:19.510Z,1.63
2022-08-01T23:38:21.812Z,1.25
2022-08-01T23:43:24.191Z,1.38
2022-08-01T23:48:27.378Z,1.08
2022-08-01T23:53:31.100Z,1.08
2022-08-01T23:58:33.658Z,2.20
